sensor_id;sensor_type;location;lat;lon;timestamp;P1;durP1;ratioP1;P2;durP2;ratioP2
3843;SDS011;1937;51.444;6.484;2024-02-15T00:00:21;14.10;;;8.40;;
3843;SDS011;1937;51.444;6.484;2024-02-15T00:02:50;14.97;;;8.07;;
3843;SDS011;1937;51.444;6.484;2024-02-15T00:05:18;13.83;;;8.40;;
3843;SDS011;1937;51.444;6.484;2024-02-15T00:07:45;16.40;;;8.37;;
3843;SDS011;1937;51.444;6.484;2024-02-15T00:10:13;16.20;;;7.63;;
3843;SDS011;1937;51.444;6.484;2024-02-15T00:12:40;13.00;;;8.00;;
3843;SDS011;1937;51.444;6.484;2024-02-15T00:15:07;15.47;;;7.30;;
3843;SDS011;1937;51.444;6.484;2024-02-15T00:17:35;15.03;;;7.33;;
3843;SDS011;1937;51.444;6.484;2024-02-15T00:20:02;18.50;;;7.77;;
3843;SDS011;1937;51.444;6.484;2024-02-15T00:22:35;12.17;;;7.90;;
3843;SDS011;1937;51.444;6.484;2024-02-15T00:25:02;15.63;;;6.73;;
3843;SDS011;1937;51.444;6.484;2024-02-15T00:27:30;15.23;;;8.63;;
3843;SDS011;1937;51.444;6.484;2024-02-15T00:29:57;12.70;;;7.90;;
3843;SDS011;1937;51.444;6.484;2024-02-15T00:32:24;11.50;;;6.90;;
3843;SDS011;1937;51.444;6.484;2024-02-15T00:34:51;12.90;;;8.37;;
3843;SDS011;1937;51.444;6.484;2024-02-15T00:37:18;12.13;;;6.77;;
3843;SDS011;1937;51.444;6.484;2024-02-15T00:39:46;19.30;;;8.03;;
3843;SDS011;1937;51.444;6.484;2024-02-15T00:42:13;12.57;;;7.50;;
3843;SDS011;1937;51.444;6.484;2024-02-15T00:44:40;16.83;;;8.30;;
3843;SDS011;1937;51.444;6.484;2024-02-15T00:47:07;15.10;;;8.20;;
3843;SDS011;1937;51.444;6.484;2024-02-15T00:49:34;12.77;;;8.60;;
3843;SDS011;1937;51.444;6.484;2024-02-15T00:52:03;15.70;;;8.13;;
3843;SDS011;1937;51.444;6.484;2024-02-15T00:54:30;13.40;;;8.60;;
3843;SDS011;1937;51.444;6.484;2024-02-15T00:57:01;14.20;;;8.87;;
3843;SDS011;1937;51.444;6.484;2024-02-15T00:59:28;19.63;;;10.50;;
3843;SDS011;1937;51.444;6.484;2024-02-15T01:01:54;15.70;;;8.90;;
3843;SDS011;1937;51.444;6.484;2024-02-15T01:04:21;13.10;;;8.23;;
3843;SDS011;1937;51.444;6.484;2024-02-15T01:06:48;17.80;;;9.60;;
3843;SDS011;1937;51.444;6.484;2024-02-15T01:09:14;14.40;;;9.23;;
3843;SDS011;1937;51.444;6.484;2024-02-15T01:11:41;15.77;;;9.90;;
3843;SDS011;1937;51.444;6.484;2024-02-15T01:14:09;15.50;;;9.10;;
3843;SDS011;1937;51.444;6.484;2024-02-15T01:16:36;24.87;;;10.03;;
3843;SDS011;1937;51.444;6.484;2024-02-15T01:19:02;16.67;;;8.90;;
3843;SDS011;1937;51.444;6.484;2024-02-15T01:21:29;17.07;;;8.77;;
3843;SDS011;1937;51.444;6.484;2024-02-15T01:23:56;13.63;;;9.30;;
3843;SDS011;1937;51.444;6.484;2024-02-15T01:26:25;15.40;;;8.03;;
3843;SDS011;1937;51.444;6.484;2024-02-15T01:28:52;15.70;;;8.40;;
3843;SDS011;1937;51.444;6.484;2024-02-15T01:31:20;13.40;;;8.57;;
3843;SDS011;1937;51.444;6.484;2024-02-15T01:33:48;20.27;;;8.80;;
3843;SDS011;1937;51.444;6.484;2024-02-15T01:36:14;13.07;;;7.50;;
3843;SDS011;1937;51.444;6.484;2024-02-15T01:38:41;15.50;;;7.63;;
3843;SDS011;1937;51.444;6.484;2024-02-15T01:41:08;25.20;;;8.63;;
3843;SDS011;1937;51.444;6.484;2024-02-15T01:43:35;17.43;;;8.37;;
3843;SDS011;1937;51.444;6.484;2024-02-15T01:46:02;17.77;;;7.67;;
3843;SDS011;1937;51.444;6.484;2024-02-15T01:48:35;13.40;;;7.57;;
3843;SDS011;1937;51.444;6.484;2024-02-15T01:51:03;16.53;;;9.33;;
3843;SDS011;1937;51.444;6.484;2024-02-15T01:53:31;10.03;;;7.00;;
3843;SDS011;1937;51.444;6.484;2024-02-15T01:55:59;20.63;;;7.83;;
3843;SDS011;1937;51.444;6.484;2024-02-15T01:58:26;14.53;;;7.30;;
3843;SDS011;1937;51.444;6.484;2024-02-15T02:00:57;14.60;;;6.97;;
3843;SDS011;1937;51.444;6.484;2024-02-15T02:03:26;19.87;;;8.20;;
3843;SDS011;1937;51.444;6.484;2024-02-15T02:05:54;11.97;;;7.30;;
3843;SDS011;1937;51.444;6.484;2024-02-15T02:08:21;11.10;;;7.30;;
3843;SDS011;1937;51.444;6.484;2024-02-15T02:10:48;13.10;;;7.70;;
3843;SDS011;1937;51.444;6.484;2024-02-15T02:13:16;17.03;;;7.40;;
3843;SDS011;1937;51.444;6.484;2024-02-15T02:15:44;16.77;;;6.40;;
3843;SDS011;1937;51.444;6.484;2024-02-15T02:18:10;12.43;;;6.63;;
3843;SDS011;1937;51.444;6.484;2024-02-15T02:20:37;15.23;;;6.60;;
3843;SDS011;1937;51.444;6.484;2024-02-15T02:23:07;12.67;;;6.70;;
3843;SDS011;1937;51.444;6.484;2024-02-15T02:25:37;14.80;;;6.73;;
3843;SDS011;1937;51.444;6.484;2024-02-15T02:28:05;8.23;;;6.00;;
3843;SDS011;1937;51.444;6.484;2024-02-15T02:30:32;16.57;;;6.47;;
3843;SDS011;1937;51.444;6.484;2024-02-15T02:32:59;14.40;;;6.10;;
3843;SDS011;1937;51.444;6.484;2024-02-15T02:35:26;13.90;;;6.33;;
3843;SDS011;1937;51.444;6.484;2024-02-15T02:37:54;14.03;;;5.90;;
3843;SDS011;1937;51.444;6.484;2024-02-15T02:40:21;12.73;;;6.03;;
3843;SDS011;1937;51.444;6.484;2024-02-15T02:42:50;11.90;;;5.90;;
3843;SDS011;1937;51.444;6.484;2024-02-15T02:45:18;17.43;;;5.60;;
3843;SDS011;1937;51.444;6.484;2024-02-15T02:47:47;13.80;;;6.60;;
3843;SDS011;1937;51.444;6.484;2024-02-15T02:50:14;19.47;;;5.43;;
3843;SDS011;1937;51.444;6.484;2024-02-15T02:52:41;14.60;;;5.53;;
3843;SDS011;1937;51.444;6.484;2024-02-15T02:55:08;12.13;;;5.70;;
3843;SDS011;1937;51.444;6.484;2024-02-15T02:57:35;11.13;;;5.57;;
3843;SDS011;1937;51.444;6.484;2024-02-15T03:00:04;10.80;;;5.90;;
3843;SDS011;1937;51.444;6.484;2024-02-15T03:02:35;12.27;;;5.60;;
3843;SDS011;1937;51.444;6.484;2024-02-15T03:05:03;9.30;;;5.23;;
3843;SDS011;1937;51.444;6.484;2024-02-15T03:07:32;10.37;;;4.70;;
3843;SDS011;1937;51.444;6.484;2024-02-15T03:09:59;8.33;;;4.90;;
3843;SDS011;1937;51.444;6.484;2024-02-15T03:12:26;12.00;;;5.17;;
3843;SDS011;1937;51.444;6.484;2024-02-15T03:14:54;7.00;;;4.87;;
3843;SDS011;1937;51.444;6.484;2024-02-15T03:17:22;8.77;;;5.20;;
3843;SDS011;1937;51.444;6.484;2024-02-15T03:19:49;9.27;;;5.40;;
3843;SDS011;1937;51.444;6.484;2024-02-15T03:22:16;10.83;;;4.80;;
3843;SDS011;1937;51.444;6.484;2024-02-15T03:24:43;18.23;;;5.70;;
3843;SDS011;1937;51.444;6.484;2024-02-15T03:27:10;11.70;;;4.50;;
3843;SDS011;1937;51.444;6.484;2024-02-15T03:29:37;17.83;;;5.93;;
3843;SDS011;1937;51.444;6.484;2024-02-15T03:32:04;12.17;;;4.63;;
3843;SDS011;1937;51.444;6.484;2024-02-15T03:34:33;10.10;;;5.03;;
3843;SDS011;1937;51.444;6.484;2024-02-15T03:37:00;10.60;;;4.80;;
3843;SDS011;1937;51.444;6.484;2024-02-15T03:39:29;8.03;;;4.70;;
3843;SDS011;1937;51.444;6.484;2024-02-15T03:41:58;8.60;;;5.13;;
3843;SDS011;1937;51.444;6.484;2024-02-15T03:44:24;5.00;;;4.30;;
3843;SDS011;1937;51.444;6.484;2024-02-15T03:46:52;10.20;;;4.80;;
3843;SDS011;1937;51.444;6.484;2024-02-15T03:49:18;5.50;;;4.57;;
3843;SDS011;1937;51.444;6.484;2024-02-15T03:51:47;9.53;;;4.50;;
3843;SDS011;1937;51.444;6.484;2024-02-15T03:54:14;9.60;;;4.60;;
3843;SDS011;1937;51.444;6.484;2024-02-15T03:56:46;12.40;;;4.80;;
3843;SDS011;1937;51.444;6.484;2024-02-15T03:59:15;10.30;;;3.90;;
3843;SDS011;1937;51.444;6.484;2024-02-15T04:01:41;10.37;;;4.50;;
3843;SDS011;1937;51.444;6.484;2024-02-15T04:04:08;11.97;;;5.13;;
3843;SDS011;1937;51.444;6.484;2024-02-15T04:06:35;11.40;;;4.60;;
3843;SDS011;1937;51.444;6.484;2024-02-15T04:09:03;11.20;;;4.43;;
3843;SDS011;1937;51.444;6.484;2024-02-15T04:11:29;5.70;;;4.00;;
3843;SDS011;1937;51.444;6.484;2024-02-15T04:13:57;9.67;;;5.00;;
3843;SDS011;1937;51.444;6.484;2024-02-15T04:16:24;8.70;;;4.87;;
3843;SDS011;1937;51.444;6.484;2024-02-15T04:18:51;11.60;;;4.90;;
3843;SDS011;1937;51.444;6.484;2024-02-15T04:21:18;6.60;;;3.90;;
3843;SDS011;1937;51.444;6.484;2024-02-15T04:23:46;6.87;;;3.97;;
3843;SDS011;1937;51.444;6.484;2024-02-15T04:26:14;9.07;;;4.70;;
3843;SDS011;1937;51.444;6.484;2024-02-15T04:28:40;7.33;;;3.87;;
3843;SDS011;1937;51.444;6.484;2024-02-15T04:31:07;9.13;;;4.73;;
3843;SDS011;1937;51.444;6.484;2024-02-15T04:33:35;7.90;;;4.40;;
3843;SDS011;1937;51.444;6.484;2024-02-15T04:36:01;5.03;;;4.10;;
3843;SDS011;1937;51.444;6.484;2024-02-15T04:38:31;8.57;;;4.67;;
3843;SDS011;1937;51.444;6.484;2024-02-15T04:41:00;8.73;;;4.77;;
3843;SDS011;1937;51.444;6.484;2024-02-15T04:43:30;8.40;;;4.70;;
3843;SDS011;1937;51.444;6.484;2024-02-15T04:45:57;9.03;;;4.60;;
3843;SDS011;1937;51.444;6.484;2024-02-15T04:48:25;19.47;;;4.70;;
3843;SDS011;1937;51.444;6.484;2024-02-15T04:50:52;13.50;;;5.30;;
3843;SDS011;1937;51.444;6.484;2024-02-15T04:53:20;6.30;;;3.87;;
3843;SDS011;1937;51.444;6.484;2024-02-15T04:55:46;7.00;;;4.50;;
3843;SDS011;1937;51.444;6.484;2024-02-15T04:58:13;8.77;;;4.40;;
3843;SDS011;1937;51.444;6.484;2024-02-15T05:00:42;7.70;;;4.30;;
3843;SDS011;1937;51.444;6.484;2024-02-15T05:03:08;9.47;;;3.63;;
3843;SDS011;1937;51.444;6.484;2024-02-15T05:05:35;8.80;;;3.53;;
3843;SDS011;1937;51.444;6.484;2024-02-15T05:08:04;12.60;;;3.60;;
3843;SDS011;1937;51.444;6.484;2024-02-15T05:10:31;7.80;;;3.73;;
3843;SDS011;1937;51.444;6.484;2024-02-15T05:12:57;6.80;;;3.87;;
3843;SDS011;1937;51.444;6.484;2024-02-15T05:15:26;7.43;;;3.97;;
3843;SDS011;1937;51.444;6.484;2024-02-15T05:17:55;6.20;;;3.10;;
3843;SDS011;1937;51.444;6.484;2024-02-15T05:20:22;12.50;;;3.50;;
3843;SDS011;1937;51.444;6.484;2024-02-15T05:22:50;6.90;;;4.70;;
3843;SDS011;1937;51.444;6.484;2024-02-15T05:25:17;5.97;;;3.20;;
3843;SDS011;1937;51.444;6.484;2024-02-15T05:27:47;9.30;;;3.50;;
3843;SDS011;1937;51.444;6.484;2024-02-15T05:30:14;8.63;;;3.73;;
3843;SDS011;1937;51.444;6.484;2024-02-15T05:32:41;5.43;;;3.17;;
3843;SDS011;1937;51.444;6.484;2024-02-15T05:35:09;9.50;;;3.90;;
3843;SDS011;1937;51.444;6.484;2024-02-15T05:37:36;12.73;;;3.87;;
3843;SDS011;1937;51.444;6.484;2024-02-15T05:40:03;9.17;;;3.60;;
3843;SDS011;1937;51.444;6.484;2024-02-15T05:42:31;8.37;;;3.63;;
3843;SDS011;1937;51.444;6.484;2024-02-15T05:44:59;9.10;;;2.97;;
3843;SDS011;1937;51.444;6.484;2024-02-15T05:47:54;8.13;;;3.20;;
3843;SDS011;1937;51.444;6.484;2024-02-15T05:50:23;7.13;;;3.50;;
3843;SDS011;1937;51.444;6.484;2024-02-15T05:52:49;7.20;;;3.60;;
3843;SDS011;1937;51.444;6.484;2024-02-15T05:55:18;5.50;;;3.40;;
3843;SDS011;1937;51.444;6.484;2024-02-15T05:57:45;6.00;;;2.90;;
3843;SDS011;1937;51.444;6.484;2024-02-15T06:00:12;12.23;;;3.80;;
3843;SDS011;1937;51.444;6.484;2024-02-15T06:02:40;9.70;;;4.50;;
3843;SDS011;1937;51.444;6.484;2024-02-15T06:05:07;8.10;;;4.30;;
3843;SDS011;1937;51.444;6.484;2024-02-15T06:07:36;11.00;;;5.87;;
3843;SDS011;1937;51.444;6.484;2024-02-15T06:10:05;6.13;;;4.33;;
3843;SDS011;1937;51.444;6.484;2024-02-15T06:12:32;8.23;;;4.40;;
3843;SDS011;1937;51.444;6.484;2024-02-15T06:14:59;21.47;;;5.03;;
3843;SDS011;1937;51.444;6.484;2024-02-15T06:17:26;13.30;;;5.40;;
3843;SDS011;1937;51.444;6.484;2024-02-15T06:19:52;12.10;;;5.47;;
3843;SDS011;1937;51.444;6.484;2024-02-15T06:22:19;15.17;;;5.50;;
3843;SDS011;1937;51.444;6.484;2024-02-15T06:24:47;5.80;;;3.47;;
3843;SDS011;1937;51.444;6.484;2024-02-15T06:27:14;7.00;;;3.67;;
3843;SDS011;1937;51.444;6.484;2024-02-15T06:29:41;7.77;;;4.43;;
3843;SDS011;1937;51.444;6.484;2024-02-15T06:32:33;6.40;;;3.10;;
3843;SDS011;1937;51.444;6.484;2024-02-15T06:35:17;5.83;;;3.20;;
3843;SDS011;1937;51.444;6.484;2024-02-15T06:38:01;6.40;;;3.27;;
3843;SDS011;1937;51.444;6.484;2024-02-15T06:40:47;10.67;;;3.57;;
3843;SDS011;1937;51.444;6.484;2024-02-15T06:43:14;7.10;;;4.27;;
3843;SDS011;1937;51.444;6.484;2024-02-15T06:45:41;7.77;;;3.40;;
3843;SDS011;1937;51.444;6.484;2024-02-15T06:48:11;8.83;;;3.60;;
3843;SDS011;1937;51.444;6.484;2024-02-15T06:50:38;5.60;;;4.60;;
3843;SDS011;1937;51.444;6.484;2024-02-15T06:53:05;4.80;;;3.43;;
3843;SDS011;1937;51.444;6.484;2024-02-15T06:55:32;10.90;;;3.73;;
3843;SDS011;1937;51.444;6.484;2024-02-15T06:58:00;6.10;;;2.83;;
3843;SDS011;1937;51.444;6.484;2024-02-15T07:00:26;6.73;;;4.23;;
3843;SDS011;1937;51.444;6.484;2024-02-15T07:02:55;9.13;;;4.60;;
3843;SDS011;1937;51.444;6.484;2024-02-15T07:05:22;12.10;;;3.80;;
3843;SDS011;1937;51.444;6.484;2024-02-15T07:07:49;6.90;;;3.53;;
3843;SDS011;1937;51.444;6.484;2024-02-15T07:10:17;9.23;;;4.27;;
3843;SDS011;1937;51.444;6.484;2024-02-15T07:12:43;7.47;;;4.10;;
3843;SDS011;1937;51.444;6.484;2024-02-15T07:15:11;10.97;;;5.70;;
3843;SDS011;1937;51.444;6.484;2024-02-15T07:17:38;17.73;;;9.37;;
3843;SDS011;1937;51.444;6.484;2024-02-15T07:20:05;11.77;;;5.27;;
3843;SDS011;1937;51.444;6.484;2024-02-15T07:22:35;12.27;;;6.20;;
3843;SDS011;1937;51.444;6.484;2024-02-15T07:25:04;9.20;;;5.00;;
3843;SDS011;1937;51.444;6.484;2024-02-15T07:27:31;16.10;;;5.27;;
3843;SDS011;1937;51.444;6.484;2024-02-15T07:30:00;7.80;;;5.50;;
3843;SDS011;1937;51.444;6.484;2024-02-15T07:32:30;10.53;;;4.90;;
3843;SDS011;1937;51.444;6.484;2024-02-15T07:35:00;7.37;;;5.50;;
3843;SDS011;1937;51.444;6.484;2024-02-15T07:37:26;12.93;;;8.60;;
3843;SDS011;1937;51.444;6.484;2024-02-15T07:39:56;11.77;;;6.40;;
3843;SDS011;1937;51.444;6.484;2024-02-15T07:42:24;12.87;;;5.77;;
3843;SDS011;1937;51.444;6.484;2024-02-15T07:44:51;8.33;;;5.07;;
3843;SDS011;1937;51.444;6.484;2024-02-15T07:47:18;20.70;;;9.27;;
3843;SDS011;1937;51.444;6.484;2024-02-15T07:49:50;18.87;;;9.97;;
3843;SDS011;1937;51.444;6.484;2024-02-15T07:52:17;11.57;;;5.60;;
3843;SDS011;1937;51.444;6.484;2024-02-15T07:54:44;15.80;;;5.80;;
3843;SDS011;1937;51.444;6.484;2024-02-15T07:57:11;7.40;;;4.20;;
3843;SDS011;1937;51.444;6.484;2024-02-15T07:59:39;9.30;;;5.07;;
3843;SDS011;1937;51.444;6.484;2024-02-15T08:02:05;11.30;;;4.93;;
3843;SDS011;1937;51.444;6.484;2024-02-15T08:04:32;7.97;;;4.60;;
3843;SDS011;1937;51.444;6.484;2024-02-15T08:07:00;13.40;;;4.27;;
3843;SDS011;1937;51.444;6.484;2024-02-15T08:09:27;8.43;;;3.57;;
3843;SDS011;1937;51.444;6.484;2024-02-15T08:11:54;7.10;;;3.47;;
3843;SDS011;1937;51.444;6.484;2024-02-15T08:14:21;8.27;;;3.83;;
3843;SDS011;1937;51.444;6.484;2024-02-15T08:16:47;15.93;;;4.50;;
3843;SDS011;1937;51.444;6.484;2024-02-15T08:19:14;8.00;;;4.20;;
3843;SDS011;1937;51.444;6.484;2024-02-15T08:21:41;8.97;;;4.70;;
3843;SDS011;1937;51.444;6.484;2024-02-15T08:24:12;9.43;;;4.10;;
3843;SDS011;1937;51.444;6.484;2024-02-15T08:26:39;9.63;;;4.13;;
3843;SDS011;1937;51.444;6.484;2024-02-15T08:29:06;8.83;;;5.07;;
3843;SDS011;1937;51.444;6.484;2024-02-15T08:31:34;7.50;;;3.17;;
3843;SDS011;1937;51.444;6.484;2024-02-15T08:34:01;7.43;;;3.50;;
3843;SDS011;1937;51.444;6.484;2024-02-15T08:36:30;4.73;;;3.40;;
3843;SDS011;1937;51.444;6.484;2024-02-15T08:38:57;7.23;;;3.17;;
3843;SDS011;1937;51.444;6.484;2024-02-15T08:41:26;7.13;;;3.97;;
3843;SDS011;1937;51.444;6.484;2024-02-15T08:43:53;6.67;;;3.60;;
3843;SDS011;1937;51.444;6.484;2024-02-15T08:46:21;16.73;;;4.27;;
3843;SDS011;1937;51.444;6.484;2024-02-15T08:48:50;6.93;;;3.67;;
3843;SDS011;1937;51.444;6.484;2024-02-15T08:51:17;8.93;;;3.87;;
3843;SDS011;1937;51.444;6.484;2024-02-15T08:53:46;7.87;;;3.83;;
3843;SDS011;1937;51.444;6.484;2024-02-15T08:56:13;13.10;;;4.53;;
3843;SDS011;1937;51.444;6.484;2024-02-15T08:58:41;7.60;;;3.77;;
3843;SDS011;1937;51.444;6.484;2024-02-15T09:01:07;5.70;;;3.33;;
3843;SDS011;1937;51.444;6.484;2024-02-15T09:03:34;6.70;;;4.20;;
3843;SDS011;1937;51.444;6.484;2024-02-15T09:06:01;10.17;;;4.20;;
3843;SDS011;1937;51.444;6.484;2024-02-15T09:08:29;8.10;;;4.00;;
3843;SDS011;1937;51.444;6.484;2024-02-15T09:10:55;8.70;;;4.43;;
3843;SDS011;1937;51.444;6.484;2024-02-15T09:13:23;5.40;;;4.27;;
3843;SDS011;1937;51.444;6.484;2024-02-15T09:15:51;8.03;;;3.60;;
3843;SDS011;1937;51.444;6.484;2024-02-15T09:18:17;10.50;;;4.73;;
3843;SDS011;1937;51.444;6.484;2024-02-15T09:20:46;4.20;;;3.60;;
3843;SDS011;1937;51.444;6.484;2024-02-15T09:23:14;7.70;;;3.80;;
3843;SDS011;1937;51.444;6.484;2024-02-15T09:25:41;8.90;;;4.30;;
3843;SDS011;1937;51.444;6.484;2024-02-15T09:28:09;7.53;;;4.03;;
3843;SDS011;1937;51.444;6.484;2024-02-15T09:30:36;6.63;;;4.20;;
3843;SDS011;1937;51.444;6.484;2024-02-15T09:33:05;9.60;;;3.97;;
3843;SDS011;1937;51.444;6.484;2024-02-15T09:35:31;12.63;;;5.10;;
3843;SDS011;1937;51.444;6.484;2024-02-15T09:37:58;8.40;;;4.20;;
3843;SDS011;1937;51.444;6.484;2024-02-15T09:40:25;10.30;;;4.90;;
3843;SDS011;1937;51.444;6.484;2024-02-15T09:42:54;7.17;;;3.70;;
3843;SDS011;1937;51.444;6.484;2024-02-15T09:45:21;8.87;;;4.17;;
3843;SDS011;1937;51.444;6.484;2024-02-15T09:47:49;6.70;;;4.43;;
3843;SDS011;1937;51.444;6.484;2024-02-15T09:50:19;8.37;;;3.87;;
3843;SDS011;1937;51.444;6.484;2024-02-15T09:52:49;9.20;;;3.90;;
3843;SDS011;1937;51.444;6.484;2024-02-15T09:55:17;9.37;;;3.70;;
3843;SDS011;1937;51.444;6.484;2024-02-15T09:57:44;4.70;;;3.60;;
3843;SDS011;1937;51.444;6.484;2024-02-15T10:00:12;10.60;;;4.80;;
3843;SDS011;1937;51.444;6.484;2024-02-15T10:02:40;12.60;;;6.37;;
3843;SDS011;1937;51.444;6.484;2024-02-15T10:05:09;7.10;;;4.40;;
3843;SDS011;1937;51.444;6.484;2024-02-15T10:07:39;6.70;;;4.30;;
3843;SDS011;1937;51.444;6.484;2024-02-15T10:10:15;4.90;;;3.83;;
3843;SDS011;1937;51.444;6.484;2024-02-15T10:12:44;6.30;;;3.60;;
3843;SDS011;1937;51.444;6.484;2024-02-15T10:15:14;12.90;;;4.67;;
3843;SDS011;1937;51.444;6.484;2024-02-15T10:17:54;6.77;;;4.77;;
3843;SDS011;1937;51.444;6.484;2024-02-15T10:20:21;9.87;;;4.80;;
3843;SDS011;1937;51.444;6.484;2024-02-15T10:22:52;11.23;;;4.63;;
3843;SDS011;1937;51.444;6.484;2024-02-15T10:25:20;9.00;;;4.13;;
3843;SDS011;1937;51.444;6.484;2024-02-15T10:27:48;7.50;;;4.50;;
3843;SDS011;1937;51.444;6.484;2024-02-15T10:30:15;7.20;;;3.70;;
3843;SDS011;1937;51.444;6.484;2024-02-15T10:32:43;7.23;;;4.00;;
3843;SDS011;1937;51.444;6.484;2024-02-15T10:35:10;15.10;;;3.77;;
3843;SDS011;1937;51.444;6.484;2024-02-15T10:37:47;6.30;;;3.10;;
3843;SDS011;1937;51.444;6.484;2024-02-15T10:40:18;12.97;;;4.00;;
3843;SDS011;1937;51.444;6.484;2024-02-15T10:42:46;7.50;;;3.80;;
3843;SDS011;1937;51.444;6.484;2024-02-15T10:45:14;9.80;;;3.93;;
3843;SDS011;1937;51.444;6.484;2024-02-15T10:47:43;7.13;;;3.13;;
3843;SDS011;1937;51.444;6.484;2024-02-15T10:50:11;6.07;;;3.73;;
3843;SDS011;1937;51.444;6.484;2024-02-15T10:52:40;4.03;;;2.90;;
3843;SDS011;1937;51.444;6.484;2024-02-15T10:55:13;5.23;;;3.07;;
3843;SDS011;1937;51.444;6.484;2024-02-15T10:57:48;4.67;;;3.10;;
3843;SDS011;1937;51.444;6.484;2024-02-15T11:00:17;7.77;;;2.80;;
3843;SDS011;1937;51.444;6.484;2024-02-15T11:02:53;4.23;;;2.63;;
3843;SDS011;1937;51.444;6.484;2024-02-15T11:05:27;11.53;;;3.43;;
3843;SDS011;1937;51.444;6.484;2024-02-15T11:07:59;5.53;;;2.87;;
3843;SDS011;1937;51.444;6.484;2024-02-15T11:10:29;3.90;;;3.50;;
3843;SDS011;1937;51.444;6.484;2024-02-15T11:12:56;3.53;;;3.10;;
3843;SDS011;1937;51.444;6.484;2024-02-15T11:15:43;6.50;;;3.00;;
3843;SDS011;1937;51.444;6.484;2024-02-15T11:18:23;3.80;;;2.67;;
3843;SDS011;1937;51.444;6.484;2024-02-15T11:21:08;6.93;;;2.87;;
3843;SDS011;1937;51.444;6.484;2024-02-15T11:23:35;6.00;;;2.87;;
3843;SDS011;1937;51.444;6.484;2024-02-15T11:26:03;5.67;;;2.87;;
3843;SDS011;1937;51.444;6.484;2024-02-15T11:28:40;5.80;;;2.90;;
3843;SDS011;1937;51.444;6.484;2024-02-15T11:37:09;6.80;;;2.97;;
3843;SDS011;1937;51.444;6.484;2024-02-15T11:39:42;4.57;;;1.87;;
3843;SDS011;1937;51.444;6.484;2024-02-15T11:42:26;5.43;;;2.63;;
3843;SDS011;1937;51.444;6.484;2024-02-15T11:45:02;8.73;;;2.30;;
3843;SDS011;1937;51.444;6.484;2024-02-15T11:47:30;4.40;;;2.20;;
3843;SDS011;1937;51.444;6.484;2024-02-15T11:49:59;2.43;;;2.17;;
3843;SDS011;1937;51.444;6.484;2024-02-15T11:52:26;3.23;;;2.37;;
3843;SDS011;1937;51.444;6.484;2024-02-15T11:54:52;3.10;;;2.20;;
3843;SDS011;1937;51.444;6.484;2024-02-15T11:57:19;4.53;;;2.90;;
3843;SDS011;1937;51.444;6.484;2024-02-15T12:00:03;4.97;;;2.23;;
3843;SDS011;1937;51.444;6.484;2024-02-15T12:02:59;4.07;;;2.40;;
3843;SDS011;1937;51.444;6.484;2024-02-15T12:05:43;5.50;;;2.60;;
3843;SDS011;1937;51.444;6.484;2024-02-15T12:08:28;3.50;;;2.00;;
3843;SDS011;1937;51.444;6.484;2024-02-15T12:11:13;3.10;;;1.90;;
3843;SDS011;1937;51.444;6.484;2024-02-15T12:13:57;4.17;;;2.00;;
3843;SDS011;1937;51.444;6.484;2024-02-15T12:16:43;4.13;;;2.93;;
3843;SDS011;1937;51.444;6.484;2024-02-15T12:19:27;4.03;;;2.03;;
3843;SDS011;1937;51.444;6.484;2024-02-15T12:21:54;2.50;;;2.30;;
3843;SDS011;1937;51.444;6.484;2024-02-15T12:24:23;6.90;;;2.57;;
3843;SDS011;1937;51.444;6.484;2024-02-15T12:26:52;5.17;;;2.10;;
3843;SDS011;1937;51.444;6.484;2024-02-15T12:29:25;3.43;;;2.40;;
3843;SDS011;1937;51.444;6.484;2024-02-15T12:31:53;3.53;;;2.37;;
3843;SDS011;1937;51.444;6.484;2024-02-15T12:34:20;9.50;;;2.27;;
3843;SDS011;1937;51.444;6.484;2024-02-15T12:36:47;3.53;;;2.57;;
3843;SDS011;1937;51.444;6.484;2024-02-15T12:39:15;2.10;;;1.53;;
3843;SDS011;1937;51.444;6.484;2024-02-15T12:41:52;3.83;;;1.60;;
3843;SDS011;1937;51.444;6.484;2024-02-15T12:44:19;3.50;;;1.73;;
3843;SDS011;1937;51.444;6.484;2024-02-15T12:46:47;5.53;;;1.80;;
3843;SDS011;1937;51.444;6.484;2024-02-15T12:49:29;2.50;;;1.60;;
3843;SDS011;1937;51.444;6.484;2024-02-15T12:55:15;2.37;;;1.57;;
3843;SDS011;1937;51.444;6.484;2024-02-15T12:57:43;4.63;;;2.13;;
3843;SDS011;1937;51.444;6.484;2024-02-15T13:00:17;4.83;;;2.03;;
3843;SDS011;1937;51.444;6.484;2024-02-15T13:02:48;5.33;;;1.90;;
3843;SDS011;1937;51.444;6.484;2024-02-15T13:05:18;3.00;;;2.30;;
3843;SDS011;1937;51.444;6.484;2024-02-15T13:07:46;4.27;;;1.80;;
3843;SDS011;1937;51.444;6.484;2024-02-15T13:10:13;3.43;;;1.73;;
3843;SDS011;1937;51.444;6.484;2024-02-15T13:12:41;9.13;;;2.07;;
3843;SDS011;1937;51.444;6.484;2024-02-15T13:15:09;2.60;;;1.83;;
3843;SDS011;1937;51.444;6.484;2024-02-15T13:17:39;3.47;;;1.73;;
3843;SDS011;1937;51.444;6.484;2024-02-15T13:20:09;3.70;;;1.40;;
3843;SDS011;1937;51.444;6.484;2024-02-15T13:22:38;3.73;;;1.70;;
3843;SDS011;1937;51.444;6.484;2024-02-15T13:25:05;2.83;;;1.93;;
3843;SDS011;1937;51.444;6.484;2024-02-15T13:27:34;6.73;;;1.87;;
3843;SDS011;1937;51.444;6.484;2024-02-15T13:30:01;6.60;;;1.90;;
3843;SDS011;1937;51.444;6.484;2024-02-15T13:32:28;4.90;;;2.33;;
3843;SDS011;1937;51.444;6.484;2024-02-15T13:34:55;3.00;;;1.60;;
3843;SDS011;1937;51.444;6.484;2024-02-15T13:37:25;5.77;;;1.50;;
3843;SDS011;1937;51.444;6.484;2024-02-15T13:39:52;5.17;;;2.17;;
3843;SDS011;1937;51.444;6.484;2024-02-15T13:42:19;6.63;;;1.70;;
3843;SDS011;1937;51.444;6.484;2024-02-15T13:44:45;1.87;;;1.13;;
3843;SDS011;1937;51.444;6.484;2024-02-15T13:47:13;7.10;;;1.90;;
3843;SDS011;1937;51.444;6.484;2024-02-15T13:49:41;4.40;;;2.23;;
3843;SDS011;1937;51.444;6.484;2024-02-15T13:52:08;8.20;;;1.67;;
3843;SDS011;1937;51.444;6.484;2024-02-15T13:54:37;4.93;;;2.13;;
3843;SDS011;1937;51.444;6.484;2024-02-15T13:57:04;3.03;;;1.90;;
3843;SDS011;1937;51.444;6.484;2024-02-15T13:59:32;2.00;;;1.50;;
3843;SDS011;1937;51.444;6.484;2024-02-15T14:01:59;7.17;;;2.50;;
3843;SDS011;1937;51.444;6.484;2024-02-15T14:04:28;2.53;;;1.83;;
3843;SDS011;1937;51.444;6.484;2024-02-15T14:06:57;4.30;;;1.70;;
3843;SDS011;1937;51.444;6.484;2024-02-15T14:09:24;3.10;;;1.50;;
3843;SDS011;1937;51.444;6.484;2024-02-15T14:11:52;3.63;;;2.33;;
3843;SDS011;1937;51.444;6.484;2024-02-15T14:14:19;4.20;;;2.00;;
3843;SDS011;1937;51.444;6.484;2024-02-15T14:16:47;2.93;;;2.10;;
3843;SDS011;1937;51.444;6.484;2024-02-15T14:19:13;6.37;;;2.00;;
3843;SDS011;1937;51.444;6.484;2024-02-15T14:21:40;4.60;;;1.73;;
3843;SDS011;1937;51.444;6.484;2024-02-15T14:24:10;4.17;;;1.70;;
3843;SDS011;1937;51.444;6.484;2024-02-15T14:26:37;5.20;;;1.90;;
3843;SDS011;1937;51.444;6.484;2024-02-15T14:29:05;6.67;;;2.20;;
3843;SDS011;1937;51.444;6.484;2024-02-15T14:31:32;3.57;;;2.60;;
3843;SDS011;1937;51.444;6.484;2024-02-15T14:34:16;2.47;;;1.60;;
3843;SDS011;1937;51.444;6.484;2024-02-15T14:36:45;9.27;;;1.80;;
3843;SDS011;1937;51.444;6.484;2024-02-15T14:39:12;3.87;;;1.50;;
3843;SDS011;1937;51.444;6.484;2024-02-15T14:41:39;5.30;;;2.40;;
3843;SDS011;1937;51.444;6.484;2024-02-15T14:44:09;2.27;;;1.57;;
3843;SDS011;1937;51.444;6.484;2024-02-15T14:46:37;3.27;;;1.77;;
3843;SDS011;1937;51.444;6.484;2024-02-15T14:49:04;2.27;;;1.50;;
3843;SDS011;1937;51.444;6.484;2024-02-15T14:51:31;1.40;;;1.13;;
3843;SDS011;1937;51.444;6.484;2024-02-15T14:54:01;3.20;;;1.40;;
3843;SDS011;1937;51.444;6.484;2024-02-15T14:56:27;1.87;;;1.60;;
3843;SDS011;1937;51.444;6.484;2024-02-15T14:58:54;6.20;;;1.70;;
3843;SDS011;1937;51.444;6.484;2024-02-15T15:01:22;4.17;;;1.47;;
3843;SDS011;1937;51.444;6.484;2024-02-15T15:03:52;5.70;;;1.73;;
3843;SDS011;1937;51.444;6.484;2024-02-15T15:06:22;2.13;;;1.93;;
3843;SDS011;1937;51.444;6.484;2024-02-15T15:09:18;3.03;;;2.33;;
3843;SDS011;1937;51.444;6.484;2024-02-15T15:12:02;5.53;;;1.80;;
3843;SDS011;1937;51.444;6.484;2024-02-15T15:14:47;1.87;;;1.77;;
3843;SDS011;1937;51.444;6.484;2024-02-15T15:17:18;4.43;;;1.73;;
3843;SDS011;1937;51.444;6.484;2024-02-15T15:19:46;4.53;;;1.80;;
3843;SDS011;1937;51.444;6.484;2024-02-15T15:22:12;8.53;;;2.03;;
3843;SDS011;1937;51.444;6.484;2024-02-15T15:24:39;4.10;;;2.13;;
3843;SDS011;1937;51.444;6.484;2024-02-15T15:27:06;3.90;;;1.93;;
3843;SDS011;1937;51.444;6.484;2024-02-15T15:29:33;3.63;;;1.90;;